Time;durP1;ratioP1;P1;durP2;ratioP2;P2;SDS_P1;SDS_P2;PMS_P1;PMS_P2;Temp;Humidity;BMP_temperature;BMP_pressure;BME280_temperature;BME280_humidity;BME280_pressure;Samples;Min_cycle;Max_cycle;Signal;HPM_P1;HPM_P2
2022/11/23 00:01:48;;;;;;;9.40;7.80;;;;;;;12.44;77.46;98302.59;5051806;28;20199;-55
2022/11/23 00:04:15;;;;;;;11.82;8.52;;;;;;;12.41;77.98;98306.03;5051718;28;20485;-55
2022/11/23 00:06:42;;;;;;;10.40;8.10;;;;;;;12.37;78.56;98308.66;5051869;28;20230;-55
2022/11/23 00:09:10;;;;;;;11.67;8.33;;;;;;;12.34;78.33;98317.28;5051690;28;20194;-55
2022/11/23 00:11:38;;;;;;;11.20;7.83;;;;;;;12.38;78.39;98318.97;5053522;28;20196;-56
2022/11/23 00:14:05;;;;;;;22.07;9.80;;;;;;;12.39;78.52;98312.06;5055448;28;20663;-55
2022/11/23 00:16:32;;;;;;;13.90;7.90;;;;;;;12.44;78.88;98312.91;5056081;28;20668;-55
2022/11/23 00:19:01;;;;;;;9.73;7.73;;;;;;;12.29;79.46;98289.84;5055708;28;20184;-55
2022/11/23 00:21:29;;;;;;;14.33;8.50;;;;;;;12.39;79.43;98305.19;5055579;28;20196;-55
2022/11/23 00:23:56;;;;;;;9.77;8.10;;;;;;;12.41;79.22;98306.03;5055447;28;20638;-55
2022/11/23 00:26:23;;;;;;;16.00;8.80;;;;;;;12.39;78.81;98297.47;5055396;28;20211;-55
2022/11/23 00:28:51;;;;;;;16.77;10.97;;;;;;;12.41;78.92;98303.44;5055509;28;20192;-56
2022/11/23 00:31:19;;;;;;;17.17;10.00;;;;;;;12.39;79.40;98297.47;5037716;28;20686;-55
2022/11/23 00:33:49;;;;;;;17.00;10.70;;;;;;;12.16;80.06;98268.53;5035312;28;20244;-55
2022/11/23 00:36:17;;;;;;;15.53;10.70;;;;;;;12.20;79.66;98253.88;5035278;28;20266;-55
2022/11/23 00:38:44;;;;;;;12.87;9.40;;;;;;;12.35;79.64;98261.47;5035250;28;20675;-55
2022/11/23 00:41:13;;;;;;;17.83;10.13;;;;;;;12.29;80.06;98271.84;5035033;28;20243;-55
2022/11/23 00:43:40;;;;;;;15.43;10.27;;;;;;;12.21;81.28;98269.34;5035594;28;20260;-55
2022/11/23 00:46:12;;;;;;;15.53;9.83;;;;;;;12.30;81.74;98281.28;5035155;28;20196;-55
2022/11/23 00:48:39;;;;;;;16.13;10.03;;;;;;;12.30;82.79;98276.97;5035190;28;20198;-55
2022/11/23 00:51:08;;;;;;;16.47;8.97;;;;;;;12.23;83.46;98259.88;5035129;28;20244;-55
2022/11/23 00:53:35;;;;;;;11.57;9.17;;;;;;;12.21;84.06;98261.63;5035248;28;20197;-55
2022/11/23 00:56:02;;;;;;;14.47;8.40;;;;;;;12.20;85.76;98282.22;5034968;28;20243;-56
2022/11/23 00:58:28;;;;;;;11.50;7.83;;;;;;;12.22;86.82;98267.63;5069705;28;20592;-56
2022/11/23 01:01:03;;;;;;;10.60;8.70;;;;;;;12.28;88.17;98258.09;5075365;28;20189;-55
2022/11/23 01:03:32;;;;;;;10.23;7.67;;;;;;;12.24;88.25;98245.28;5062068;28;20269;-56
2022/11/23 01:06:03;;;;;;;8.73;7.07;;;;;;;11.97;88.52;98218.09;5054702;28;20198;-56
2022/11/23 01:08:30;;;;;;;11.87;7.63;;;;;;;12.14;89.64;98249.66;5055408;28;20192;-56
2022/11/23 01:11:00;;;;;;;9.53;6.20;;;;;;;12.08;90.61;98229.16;5054498;28;20191;-55
2022/11/23 01:13:27;;;;;;;12.77;6.53;;;;;;;11.91;92.28;98214.72;5054484;28;20195;-55
2022/11/23 01:15:54;;;;;;;10.80;6.27;;;;;;;11.89;93.30;98211.31;5062235;28;20229;-55
2022/11/23 01:18:21;;;;;;;10.10;6.93;;;;;;;11.80;94.73;98209.69;5068719;28;20233;-57
2022/11/23 01:20:49;;;;;;;9.07;6.90;;;;;;;11.80;94.47;98202.81;5054460;28;20265;-55
2022/11/23 01:23:16;;;;;;;9.40;6.70;;;;;;;11.82;94.69;98207.94;5053698;28;20191;-55
2022/11/23 01:25:42;;;;;;;8.60;6.07;;;;;;;11.91;95.46;98209.56;5064394;28;20195;-55
2022/11/23 01:28:09;;;;;;;8.83;6.90;;;;;;;11.83;95.25;98169.34;5074435;28;20581;-55
2022/11/23 01:30:36;;;;;;;10.23;5.97;;;;;;;11.81;95.69;98150.47;5074577;28;20191;-55
2022/11/23 01:33:04;;;;;;;10.43;7.15;;;;;;;11.76;96.65;98141.09;5073851;28;20438;-55
2022/11/23 01:35:31;;;;;;;9.53;5.97;;;;;;;11.73;96.91;98131.69;5073983;28;20227;-55
2022/11/23 01:37:59;;;;;;;8.77;6.77;;;;;;;11.64;97.23;98146.34;5074225;28;20323;-55
2022/11/23 01:40:25;;;;;;;8.37;5.87;;;;;;;11.62;97.96;98164.34;5074015;28;20245;-55
2022/11/23 01:42:55;;;;;;;6.77;6.03;;;;;;;11.64;98.87;98182.38;5074130;28;20187;-55
2022/11/23 01:45:36;;;;;;;9.32;6.40;;;;;;;11.68;98.73;98215.75;5073801;28;20495;-56
2022/11/23 01:48:05;;;;;;;11.63;8.87;;;;;;;11.65;97.96;98217.50;5069405;28;20202;-56
2022/11/23 01:50:32;;;;;;;20.03;14.83;;;;;;;11.18;92.83;98190.44;5063611;28;20195;-55
2022/11/23 01:53:01;;;;;;;16.93;14.53;;;;;;;11.07;92.99;98171.66;5073773;28;20202;-55
2022/11/23 01:55:28;;;;;;;16.37;14.20;;;;;;;10.91;93.77;98157.22;5073872;28;20188;-55
2022/11/23 01:57:55;;;;;;;19.37;13.87;;;;;;;10.81;94.91;98153.00;5073633;28;20218;-55
2022/11/23 02:00:22;;;;;;;17.77;14.60;;;;;;;10.77;96.53;98159.00;5073734;28;20187;-55
2022/11/23 02:02:55;;;;;;;15.93;13.80;;;;;;;10.84;97.13;98194.09;5074063;28;20189;-56
2022/11/23 02:05:27;;;;;;;15.13;11.70;;;;;;;10.96;97.92;98195.75;5074010;28;20237;-56
2022/11/23 02:07:54;;;;;;;18.80;12.07;;;;;;;11.08;98.46;98195.66;5073407;28;20195;-55
2022/11/23 02:10:23;;;;;;;17.23;13.27;;;;;;;11.12;98.94;98198.19;5073294;28;20241;-55
2022/11/23 02:12:50;;;;;;;18.57;14.67;;;;;;;11.21;98.92;98192.97;5073399;28;20294;-56
2022/11/23 02:15:17;;;;;;;18.87;14.13;;;;;;;11.25;98.63;98181.81;5074184;28;20245;-56
2022/11/23 02:17:44;;;;;;;16.07;13.83;;;;;;;11.26;98.51;98183.50;5073484;28;20219;-55
2022/11/23 02:20:14;;;;;;;17.00;14.23;;;;;;;11.27;98.49;98177.53;5073652;28;20191;-55
2022/11/23 02:22:50;;;;;;;20.27;15.57;;;;;;;11.36;98.50;98193.75;5073496;28;20214;-55
2022/11/23 02:25:32;;;;;;;19.80;17.38;;;;;;;11.46;98.45;98211.66;5072078;28;20426;-57
2022/11/23 02:28:01;;;;;;;15.93;13.70;;;;;;;11.50;97.40;98212.50;5069510;28;20201;-55
2022/11/23 02:30:29;;;;;;;21.67;16.00;;;;;;;11.46;97.08;98188.50;5053456;28;20208;-55
2022/11/23 02:32:56;;;;;;;21.37;15.27;;;;;;;11.45;96.17;98198.81;5053116;28;20654;-56
2022/11/23 02:35:23;;;;;;;17.60;15.03;;;;;;;11.34;95.64;98186.06;5053317;28;20219;-55
2022/11/23 02:37:51;;;;;;;20.75;17.27;;;;;;;11.32;95.04;98174.91;5052032;28;20447;-56
2022/11/23 02:40:27;;;;;;;18.70;15.93;;;;;;;11.30;94.54;98168.06;5052680;28;20192;-55
2022/11/23 02:42:54;;;;;;;20.90;16.40;;;;;;;11.21;94.34;98167.28;5053672;28;20194;-55
2022/11/23 02:45:29;;;;;;;24.17;16.63;;;;;;;11.18;93.81;98169.88;5042488;28;20250;-55
2022/11/23 02:47:56;;;;;;;18.07;15.50;;;;;;;11.17;95.54;98188.75;5032994;28;20197;-55
2022/11/23 02:50:22;;;;;;;17.73;15.23;;;;;;;11.15;95.88;98175.03;5032644;28;20193;-56
2022/11/23 02:52:49;;;;;;;17.13;14.10;;;;;;;11.16;95.44;98173.31;5032195;28;20745;-61
2022/11/23 02:55:16;;;;;;;17.77;13.63;;;;;;;10.98;94.38;98140.06;5050148;28;20203;-55
2022/11/23 02:57:43;;;;;;;20.93;15.77;;;;;;;11.12;94.39;98166.50;5052233;28;20220;-55
2022/11/23 03:00:11;;;;;;;20.57;14.67;;;;;;;11.12;94.71;98180.19;5052633;28;20187;-55
2022/11/23 03:02:39;;;;;;;20.17;14.47;;;;;;;11.07;93.61;98179.38;5052620;28;20192;-55
2022/11/23 03:05:07;;;;;;;17.20;13.97;;;;;;;10.97;92.96;98164.88;5052385;28;20675;-55
2022/11/23 03:07:34;;;;;;;19.03;14.30;;;;;;;11.03;93.35;98169.13;5052314;28;20207;-55
2022/11/23 03:10:01;;;;;;;18.10;13.83;;;;;;;11.04;93.09;98181.13;5052157;28;20208;-55
2022/11/23 03:12:28;;;;;;;15.97;13.47;;;;;;;11.00;92.28;98194.84;5052508;28;20663;-55
2022/11/23 03:14:55;;;;;;;15.30;13.03;;;;;;;10.90;91.50;98181.22;5052556;28;20189;-55
2022/11/23 03:17:22;;;;;;;17.07;13.50;;;;;;;10.88;92.05;98161.50;5052334;28;20311;-55
2022/11/23 03:19:51;;;;;;;18.33;13.20;;;;;;;10.88;91.63;98152.09;5052253;28;20196;-55
2022/11/23 03:22:17;;;;;;;15.67;12.87;;;;;;;10.91;91.36;98149.50;5052438;28;20188;-55
2022/11/23 03:24:44;;;;;;;16.07;13.13;;;;;;;10.95;91.99;98158.91;5052273;28;20222;-55
2022/11/23 03:27:11;;;;;;;15.53;13.00;;;;;;;10.84;91.98;98124.72;5051962;28;20666;-55
2022/11/23 03:29:38;;;;;;;16.17;13.10;;;;;;;11.00;91.68;98146.88;5051936;28;20266;-55
2022/11/23 03:32:05;;;;;;;15.93;12.80;;;;;;;11.00;91.31;98143.44;5052131;28;20192;-55
2022/11/23 03:34:32;;;;;;;14.47;11.60;;;;;;;11.00;90.55;98139.16;5051844;28;20224;-55
2022/11/23 03:37:00;;;;;;;15.77;11.70;;;;;;;10.98;90.25;98151.19;5052606;28;20307;-55
2022/11/23 03:39:27;;;;;;;15.00;12.27;;;;;;;10.96;90.40;98150.31;5051852;28;20192;-55
2022/11/23 03:41:54;;;;;;;16.87;12.43;;;;;;;11.00;90.76;98146.88;5051792;28;20189;-55
2022/11/23 03:44:20;;;;;;;14.50;12.60;;;;;;;11.00;91.12;98154.59;5051836;28;20575;-55
2022/11/23 03:46:49;;;;;;;15.40;13.00;;;;;;;11.02;91.58;98150.28;5051285;28;20192;-55
2022/11/23 03:49:16;;;;;;;14.67;12.93;;;;;;;11.01;92.13;98155.44;5051942;28;20192;-55
2022/11/23 03:51:42;;;;;;;12.97;11.13;;;;;;;11.01;91.06;98155.44;5052165;28;20242;-55
2022/11/23 03:54:11;;;;;;;14.73;11.97;;;;;;;11.03;90.21;98170.00;5052063;28;20188;-55
2022/11/23 03:56:37;;;;;;;15.53;12.03;;;;;;;11.00;90.35;98170.00;5050444;28;20219;-55
2022/11/23 03:59:04;;;;;;;14.03;11.80;;;;;;;11.00;90.18;98157.16;5041730;28;20251;-55
2022/11/23 04:01:31;;;;;;;14.77;12.23;;;;;;;11.03;89.61;98169.13;5031591;28;20197;-55
2022/11/23 04:03:58;;;;;;;14.40;11.07;;;;;;;11.02;89.56;98173.41;5032424;28;20197;-55
2022/11/23 04:06:24;;;;;;;14.10;11.37;;;;;;;11.00;90.57;98180.28;5032500;28;20188;-55
2022/11/23 04:08:51;;;;;;;15.07;11.27;;;;;;;11.05;90.48;98181.09;5041569;28;20694;-55
2022/11/23 04:11:19;;;;;;;15.50;11.47;;;;;;;10.98;90.31;98182.03;5051995;28;20200;-55
2022/11/23 04:13:46;;;;;;;12.27;11.07;;;;;;;11.08;90.40;98188.81;5051646;28;20188;-55
2022/11/23 04:16:13;;;;;;;15.37;10.90;;;;;;;11.06;89.45;98185.41;5051652;28;20216;-55
2022/11/23 04:18:40;;;;;;;12.93;10.77;;;;;;;11.07;89.06;98174.22;5051872;28;20196;-55
2022/11/23 04:21:07;;;;;;;11.63;10.33;;;;;;;11.12;88.60;98177.63;5051209;28;20275;-55
2022/11/23 04:23:34;;;;;;;13.50;11.37;;;;;;;11.12;88.74;98169.91;5051301;28;20185;-55
2022/11/23 04:26:01;;;;;;;12.43;10.80;;;;;;;11.10;88.84;98151.09;5051547;28;20606;-55
2022/11/23 04:28:29;;;;;;;12.30;9.67;;;;;;;11.19;88.48;98145.88;5051130;28;20586;-55
2022/11/23 04:30:57;;;;;;;15.23;11.17;;;;;;;11.23;87.51;98147.53;5050977;28;20219;-55
2022/11/23 04:33:25;;;;;;;11.53;10.23;;;;;;;11.24;87.85;98158.69;5050818;28;20682;-55
2022/11/23 04:35:52;;;;;;;12.27;10.00;;;;;;;11.23;87.77;98162.13;5051541;28;20196;-54
2022/11/23 04:38:19;;;;;;;11.17;9.27;;;;;;;11.19;87.73;98161.31;5051122;28;20726;-55
2022/11/23 04:40:48;;;;;;;11.83;9.70;;;;;;;11.23;87.47;98168.09;5051276;28;20192;-55
2022/11/23 04:43:15;;;;;;;12.33;9.47;;;;;;;11.19;87.28;98166.44;5051121;28;20196;-55
2022/11/23 04:45:45;;;;;;;10.13;8.93;;;;;;;11.06;87.20;98146.84;5050642;28;20193;-57
2022/11/23 04:48:12;;;;;;;10.17;9.17;;;;;;;11.16;87.46;98163.91;5050222;28;20200;-55
2022/11/23 04:50:40;;;;;;;11.30;9.40;;;;;;;11.15;87.09;98171.63;5032606;28;20185;-55
2022/11/23 04:53:07;;;;;;;11.00;9.30;;;;;;;11.14;87.19;98172.47;5050673;28;20275;-54
2022/11/23 04:55:34;;;;;;;12.20;9.37;;;;;;;11.18;87.40;98180.16;5050858;28;20197;-55
2022/11/23 04:58:00;;;;;;;13.87;8.73;;;;;;;11.07;87.31;98150.28;5051167;28;20224;-55
2022/11/23 05:00:27;;;;;;;15.33;9.70;;;;;;;11.22;87.76;98170.72;5054113;28;20677;-54
2022/11/23 05:02:58;;;;;;;10.93;8.40;;;;;;;11.19;87.73;98171.59;5054194;28;20543;-55
2022/11/23 05:05:25;;;;;;;9.63;8.57;;;;;;;11.24;87.58;98176.69;5054543;28;20188;-55
2022/11/23 05:07:52;;;;;;;13.20;8.70;;;;;;;11.23;87.20;98173.25;5054144;28;20678;-55
2022/11/23 05:10:18;;;;;;;10.07;7.85;;;;;;;11.24;87.21;98174.97;5054235;28;20406;-55
2022/11/23 05:12:45;;;;;;;9.43;8.07;;;;;;;11.34;86.63;98178.34;5054153;28;20238;-55
2022/11/23 05:15:13;;;;;;;10.33;8.20;;;;;;;11.37;85.94;98157.72;5054168;28;20188;-54
2022/11/23 05:17:40;;;;;;;9.50;7.83;;;;;;;11.37;86.52;98160.28;5054245;28;20318;-54
2022/11/23 05:20:10;;;;;;;10.80;8.20;;;;;;;11.42;86.39;98168.84;5054116;28;20192;-54
2022/11/23 05:22:37;;;;;;;9.03;7.27;;;;;;;11.41;86.06;98156.84;5054004;28;20224;-54
2022/11/23 05:25:04;;;;;;;10.97;8.60;;;;;;;11.39;86.90;98145.72;5053979;28;20192;-54
2022/11/23 05:27:31;;;;;;;8.73;7.67;;;;;;;11.47;86.68;98143.06;5054351;28;20196;-54
2022/11/23 05:29:57;;;;;;;10.90;8.23;;;;;;;11.52;86.37;98157.59;5053701;28;20184;-55
2022/11/23 05:32:24;;;;;;;12.30;8.23;;;;;;;11.56;86.40;98171.28;5055397;28;20256;-55
2022/11/23 05:34:51;;;;;;;7.73;6.93;;;;;;;11.55;86.59;98177.28;5073242;28;20234;-55
2022/11/23 05:37:19;;;;;;;10.90;8.23;;;;;;;11.53;86.70;98179.88;5053778;28;20211;-54
2022/11/23 05:39:46;;;;;;;9.20;7.73;;;;;;;11.52;86.42;98169.59;5053510;28;20295;-54
2022/11/23 05:42:13;;;;;;;9.57;7.50;;;;;;;11.54;86.88;98165.28;5054627;28;20195;-55
2022/11/23 05:44:39;;;;;;;10.63;7.73;;;;;;;11.57;86.77;98165.25;5073608;28;20241;-54
2022/11/23 05:47:06;;;;;;;8.83;6.83;;;;;;;11.54;86.95;98163.56;5073710;28;20188;-54
2022/11/23 05:49:33;;;;;;;9.95;8.10;;;;;;;11.58;87.34;98154.97;5073435;28;20464;-55
2022/11/23 05:52:00;;;;;;;12.63;6.90;;;;;;;11.59;87.43;98140.41;5073449;28;20598;-55
2022/11/23 05:54:28;;;;;;;10.17;7.63;;;;;;;11.67;86.63;98162.56;5073325;28;20654;-55
2022/11/23 05:56:55;;;;;;;7.50;6.80;;;;;;;11.70;86.45;98169.47;5073277;28;20265;-54
2022/11/23 05:59:22;;;;;;;10.73;7.67;;;;;;;11.76;86.77;98165.09;5073465;28;20264;-55
2022/11/23 06:01:49;;;;;;;12.40;8.40;;;;;;;11.84;86.62;98157.31;5073356;28;20195;-54
2022/11/23 06:04:18;;;;;;;14.43;8.30;;;;;;;11.85;86.48;98153.88;5073466;28;20188;-55
2022/11/23 06:06:45;;;;;;;8.80;7.30;;;;;;;11.91;85.97;98161.53;5073444;28;20194;-54
2022/11/23 06:09:12;;;;;;;10.27;7.60;;;;;;;11.90;86.02;98157.25;5070529;28;20196;-55
2022/11/23 06:11:40;;;;;;;12.33;8.30;;;;;;;11.96;86.03;98152.03;5073072;28;20188;-55
2022/11/23 06:14:07;;;;;;;10.50;7.60;;;;;;;11.99;86.42;98153.72;5073006;28;20658;-55
2022/11/23 06:16:33;;;;;;;9.53;7.97;;;;;;;11.97;86.08;98150.31;5072834;28;20241;-54
2022/11/23 06:19:00;;;;;;;10.53;7.63;;;;;;;12.02;86.54;98143.41;5072824;28;20216;-54
2022/11/23 06:21:27;;;;;;;9.73;8.67;;;;;;;12.13;86.16;98162.16;5072841;28;20237;-55
2022/11/23 06:23:54;;;;;;;9.97;8.53;;;;;;;12.18;85.75;98161.22;5072602;28;20188;-55
2022/11/23 06:26:21;;;;;;;9.10;8.20;;;;;;;12.21;85.16;98168.91;5069908;28;20185;-55
2022/11/23 06:28:49;;;;;;;18.07;8.80;;;;;;;12.22;84.92;98170.59;5062892;28;20200;-55
2022/11/23 06:31:16;;;;;;;11.60;8.93;;;;;;;12.25;85.24;98173.16;5052566;28;20192;-55
2022/11/23 06:33:45;;;;;;;10.20;8.77;;;;;;;12.20;85.33;98171.50;5052337;28;20274;-55
2022/11/23 06:36:11;;;;;;;13.53;9.87;;;;;;;12.18;86.25;98174.09;5052498;28;20196;-56
2022/11/23 06:38:38;;;;;;;13.07;9.37;;;;;;;12.23;85.86;98185.19;5053048;28;20311;-55
2022/11/23 06:41:05;;;;;;;11.37;9.57;;;;;;;12.17;86.45;98192.13;5052502;28;20191;-55
2022/11/23 06:43:32;;;;;;;11.93;9.87;;;;;;;12.12;86.89;98194.75;5052407;28;20199;-55
2022/11/23 06:46:05;;;;;;;10.80;9.07;;;;;;;12.08;87.43;98190.53;5047911;28;20759;-56
2022/11/23 06:48:32;;;;;;;13.33;10.33;;;;;;;12.17;87.33;98202.41;5052169;28;20279;-57
2022/11/23 06:50:59;;;;;;;13.90;10.50;;;;;;;12.22;87.66;98209.22;5062359;28;20245;-56
2022/11/23 06:53:26;;;;;;;14.03;9.73;;;;;;;12.24;87.31;98186.91;5048516;28;20255;-56
2022/11/23 06:55:53;;;;;;;13.73;11.60;;;;;;;12.34;86.86;98198.81;5051248;28;20457;-56
2022/11/23 06:58:20;;;;;;;12.33;10.40;;;;;;;12.43;86.22;98193.56;5068949;28;20223;-54
2022/11/23 07:00:47;;;;;;;12.23;10.90;;;;;;;12.47;86.23;98184.03;5072042;28;20188;-55
2022/11/23 07:03:20;;;;;;;15.63;10.23;;;;;;;12.48;85.95;98197.78;5072035;28;20653;-55
2022/11/23 07:05:47;;;;;;;12.53;11.17;;;;;;;12.39;86.46;98184.16;5072007;28;20608;-54
2022/11/23 07:08:14;;;;;;;14.07;10.70;;;;;;;12.41;86.42;98195.28;5070465;28;20196;-54
2022/11/23 07:10:41;;;;;;;13.10;11.60;;;;;;;12.48;86.68;98188.34;5060903;28;20196;-55
2022/11/23 07:13:09;;;;;;;12.70;10.33;;;;;;;12.49;86.32;98174.59;5052611;28;20185;-55
2022/11/23 07:15:37;;;;;;;15.60;10.67;;;;;;;12.59;86.05;98206.22;5071506;28;20191;-55
2022/11/23 07:18:04;;;;;;;14.00;11.60;;;;;;;12.62;86.31;98204.47;5071626;28;20449;-55
2022/11/23 07:20:33;;;;;;;14.93;12.53;;;;;;;12.53;86.47;98181.41;5071090;28;20191;-55
2022/11/23 07:23:01;;;;;;;15.63;11.73;;;;;;;12.68;86.67;98199.25;5072608;28;20206;-55
2022/11/23 07:25:28;;;;;;;16.80;11.57;;;;;;;12.68;86.62;98209.56;5070042;28;20216;-55
2022/11/23 07:27:56;;;;;;;16.67;13.13;;;;;;;12.75;86.63;98218.03;5070962;28;20491;-54
2022/11/23 07:30:23;;;;;;;18.13;13.17;;;;;;;12.84;86.29;98210.19;5070497;28;20196;-55
2022/11/23 07:32:50;;;;;;;13.90;11.77;;;;;;;12.92;86.08;98209.22;5070842;28;20678;-55
2022/11/23 07:35:18;;;;;;;18.57;12.43;;;;;;;12.94;86.47;98216.94;5072273;28;20228;-54
2022/11/23 07:37:46;;;;;;;19.20;12.53;;;;;;;12.99;86.23;98222.91;5070357;28;20219;-55
2022/11/23 07:40:14;;;;;;;15.03;12.50;;;;;;;12.93;86.22;98217.81;5071216;28;20200;-56
2022/11/23 07:42:41;;;;;;;15.57;12.87;;;;;;;13.02;86.40;98234.00;5071700;28;20192;-55
2022/11/23 07:45:09;;;;;;;22.73;14.93;;;;;;;13.11;86.18;98230.47;5070253;28;20441;-55
2022/11/23 07:47:36;;;;;;;18.40;14.37;;;;;;;13.21;85.93;98233.78;5069435;28;20551;-55
2022/11/23 07:50:03;;;;;;;20.53;14.43;;;;;;;13.26;85.69;98232.84;5070547;28;20199;-56
2022/11/23 07:52:29;;;;;;;24.67;15.60;;;;;;;13.21;86.17;98226.88;5070531;28;20183;-56
2022/11/23 07:54:59;;;;;;;21.63;14.23;;;;;;;13.27;86.12;98229.38;5053396;28;20566;-56
2022/11/23 07:57:25;;;;;;;21.20;13.80;;;;;;;13.33;86.28;98238.75;5061026;28;20285;-56
2022/11/23 07:59:52;;;;;;;20.50;15.30;;;;;;;13.32;86.30;98237.06;5070535;28;20245;-56
2022/11/23 08:02:19;;;;;;;19.70;14.30;;;;;;;13.30;86.70;98237.06;5071180;28;20187;-56
2022/11/23 08:04:46;;;;;;;18.60;14.13;;;;;;;13.26;87.52;98232.84;5071380;28;20188;-55
2022/11/23 08:07:13;;;;;;;19.40;14.03;;;;;;;13.39;87.20;98244.69;5071138;28;20195;-56
2022/11/23 08:09:40;;;;;;;21.03;14.67;;;;;;;13.40;86.98;98236.09;5071335;28;20658;-55
2022/11/23 08:12:08;;;;;;;17.87;13.00;;;;;;;13.45;86.55;98243.75;5071298;28;20193;-56
2022/11/23 08:14:35;;;;;;;19.50;14.20;;;;;;;13.48;86.67;98249.72;5071330;28;20191;-56
2022/11/23 08:17:02;;;;;;;23.63;14.47;;;;;;;13.55;86.66;98251.31;5071354;28;20273;-56
2022/11/23 08:19:29;;;;;;;19.23;13.07;;;;;;;13.61;86.55;98247.78;5070930;28;20215;-56
2022/11/23 08:21:56;;;;;;;17.07;14.00;;;;;;;13.64;86.52;98252.91;5070794;28;20196;-56
2022/11/23 08:24:22;;;;;;;19.37;13.33;;;;;;;13.57;86.53;98246.97;5071023;28;20193;-55
2022/11/23 08:26:49;;;;;;;18.33;14.57;;;;;;;13.55;86.81;98234.97;5071036;28;20196;-56
2022/11/23 08:29:18;;;;;;;24.73;14.53;;;;;;;13.65;86.48;98249.44;5070994;28;20200;-56
2022/11/23 08:31:44;;;;;;;18.93;13.33;;;;;;;13.61;86.65;98260.69;5067758;28;20187;-56
2022/11/23 08:34:12;;;;;;;18.43;13.60;;;;;;;13.53;86.41;98247.91;5054518;28;20232;-55
2022/11/23 08:36:39;;;;;;;17.17;12.37;;;;;;;13.66;86.59;98247.69;5072151;28;20199;-55
2022/11/23 08:39:06;;;;;;;19.17;13.20;;;;;;;13.69;86.53;98242.50;5074250;28;20230;-55
2022/11/23 08:41:33;;;;;;;18.37;12.63;;;;;;;13.70;86.98;98242.47;5074395;28;20202;-55
2022/11/23 08:44:00;;;;;;;17.40;12.10;;;;;;;13.82;86.10;98239.69;5058619;28;20200;-56
2022/11/23 08:46:28;;;;;;;19.43;12.40;;;;;;;13.77;85.96;98225.16;5051475;28;20191;-56
2022/11/23 08:48:55;;;;;;;17.77;11.90;;;;;;;13.91;85.80;98233.50;5053713;28;20256;-56
2022/11/23 08:51:22;;;;;;;17.30;12.30;;;;;;;13.97;85.49;98230.81;5053975;28;20184;-56
2022/11/23 08:53:49;;;;;;;18.87;12.57;;;;;;;14.02;85.40;98226.44;5054023;28;20186;-56
2022/11/23 08:56:16;;;;;;;19.73;13.20;;;;;;;14.06;84.25;98228.91;5053272;28;20187;-55
2022/11/23 08:58:43;;;;;;;18.50;13.10;;;;;;;14.13;83.96;98230.53;5053482;28;20215;-55
2022/11/23 09:01:10;;;;;;;17.80;12.90;;;;;;;14.15;83.08;98222.75;5052692;28;20679;-55
2022/11/23 09:03:39;;;;;;;17.93;13.67;;;;;;;14.10;82.97;98230.59;5041380;28;20197;-55
2022/11/23 09:06:06;;;;;;;17.33;14.47;;;;;;;14.15;83.16;98233.06;5033856;28;20208;-55
2022/11/23 09:08:33;;;;;;;17.57;13.23;;;;;;;14.14;82.42;98223.63;5033870;28;20234;-55
2022/11/23 09:11:01;;;;;;;21.73;13.87;;;;;;;14.11;82.30;98208.19;5038581;28;20254;-56
2022/11/23 09:13:28;;;;;;;16.93;14.30;;;;;;;14.25;82.67;98219.13;5053519;28;20196;-56
2022/11/23 09:15:58;;;;;;;21.73;12.80;;;;;;;14.34;81.42;98203.47;5053482;28;20644;-55
2022/11/23 09:18:25;;;;;;;17.10;13.30;;;;;;;14.37;81.68;98206.00;5051382;28;20255;-56
2022/11/23 09:20:54;;;;;;;21.67;12.73;;;;;;;14.35;81.59;98202.59;5052449;28;20203;-55
2022/11/23 09:23:21;;;;;;;16.07;12.90;;;;;;;14.40;81.33;98197.31;5051940;28;20199;-55
2022/11/23 09:25:48;;;;;;;16.60;11.67;;;;;;;14.47;81.71;98194.59;5052793;28;20662;-56
2022/11/23 09:28:18;;;;;;;15.80;12.47;;;;;;;14.11;81.39;98118.66;5053044;28;20582;-56
2022/11/23 09:30:45;;;;;;;15.50;11.63;;;;;;;14.67;80.93;98186.41;5052751;28;20258;-56
2022/11/23 09:33:12;;;;;;;18.93;13.23;;;;;;;14.76;80.66;98174.16;5053432;28;20190;-55
2022/11/23 09:35:39;;;;;;;15.93;13.17;;;;;;;14.96;80.10;98171.13;5052258;28;20279;-56
2022/11/23 09:38:07;;;;;;;15.53;12.50;;;;;;;15.14;79.04;98167.25;5033290;28;20719;-56
2022/11/23 09:40:37;;;;;;;16.50;12.60;;;;;;;15.08;78.21;98160.50;5049827;28;20192;-56
2022/11/23 09:43:17;;;;;;;20.23;13.10;;;;;;;14.93;79.26;98162.59;5053210;28;20682;-55
2022/11/23 09:45:49;;;;;;;15.77;12.37;;;;;;;14.89;79.58;98163.56;5036669;28;20536;-55
2022/11/23 09:48:30;;;;;;;19.43;13.60;;;;;;;14.87;79.58;98163.56;5033429;28;20211;-56
2022/11/23 09:51:05;;;;;;;17.40;13.70;;;;;;;14.93;79.26;98152.25;5033653;28;20200;-56
2022/11/23 09:53:38;;;;;;;20.97;14.13;;;;;;;14.99;79.42;98152.97;5033483;28;20598;-56
2022/11/23 09:56:14;;;;;;;19.10;15.10;;;;;;;14.96;79.32;98155.63;5032635;28;20433;-55
2022/11/23 09:58:41;;;;;;;19.90;14.33;;;;;;;14.76;80.11;98150.03;5033599;28;20219;-55
2022/11/23 10:01:14;;;;;;;18.20;14.27;;;;;;;14.56;81.20;98160.78;5039017;28;20606;-56
2022/11/23 10:03:42;;;;;;;16.00;12.70;;;;;;;14.67;81.22;98153.66;5069461;28;20195;-55
2022/11/23 10:06:18;;;;;;;18.37;12.80;;;;;;;14.80;80.70;98148.25;5054759;28;20192;-56
2022/11/23 10:08:57;;;;;;;17.00;12.40;;;;;;;14.95;79.75;98156.50;5053010;28;20199;-55
2022/11/23 10:11:42;;;;;;;16.20;12.53;;;;;;;15.03;79.65;98151.13;5053553;28;20242;-55
2022/11/23 10:14:28;;;;;;;17.90;13.10;;;;;;;15.11;79.41;98144.91;5052887;28;20281;-55
2022/11/23 10:17:05;;;;;;;16.97;13.07;;;;;;;15.18;79.01;98130.97;5053220;28;20200;-55
2022/11/23 10:19:48;;;;;;;20.27;13.10;;;;;;;15.27;78.45;98133.31;5053192;28;20224;-56
2022/11/23 10:22:22;;;;;;;17.57;12.43;;;;;;;15.33;77.64;98132.31;5049827;28;20195;-56
2022/11/23 10:24:53;;;;;;;17.13;14.13;;;;;;;15.46;77.64;98136.34;5045728;28;20185;-55
2022/11/23 10:27:24;;;;;;;18.57;14.10;;;;;;;15.54;76.73;98136.16;5042355;28;20196;-55
2022/11/23 10:29:55;;;;;;;20.23;15.67;;;;;;;15.62;77.03;98124.72;5033374;28;20188;-55
2022/11/23 10:32:30;;;;;;;14.87;12.53;;;;;;;15.62;76.41;98132.47;5032818;28;20185;-55
2022/11/23 10:35:04;;;;;;;16.07;13.70;;;;;;;15.64;76.34;98135.88;5032516;28;20231;-55
2022/11/23 10:37:33;;;;;;;18.57;14.60;;;;;;;15.70;75.79;98146.06;5033008;28;20184;-55
2022/11/23 10:40:01;;;;;;;16.03;13.70;;;;;;;15.75;76.09;98138.16;5042340;28;20701;-56
2022/11/23 10:42:32;;;;;;;17.33;14.27;;;;;;;15.65;75.68;98144.50;5051869;28;20590;-56
2022/11/23 10:45:00;;;;;;;20.17;15.63;;;;;;;15.43;77.16;98144.16;5072642;28;20191;-57
2022/11/23 10:47:39;;;;;;;16.40;13.50;;;;;;;15.23;77.85;98139.44;5072636;28;20215;-56
2022/11/23 10:50:24;;;;;;;15.63;13.77;;;;;;;15.35;77.96;98138.31;5072171;28;20206;-56
2022/11/23 10:52:53;;;;;;;19.37;15.33;;;;;;;15.58;77.23;98137.75;5072245;28;20198;-56
2022/11/23 10:55:26;;;;;;;19.58;16.20;;;;;;;15.75;76.21;98120.91;5071320;28;20438;-54
2022/11/23 10:57:54;;;;;;;18.60;16.27;;;;;;;15.82;75.65;98119.84;5078309;28;20184;-55
2022/11/23 11:00:23;;;;;;;19.90;17.13;;;;;;;15.91;75.55;98118.75;5072045;28;20450;-56
2022/11/23 11:02:52;;;;;;;17.80;15.40;;;;;;;15.80;75.61;98121.63;5072014;28;20188;-55
2022/11/23 11:05:31;;;;;;;19.10;14.73;;;;;;;15.88;75.65;98137.81;5070874;28;20187;-55
2022/11/23 11:08:00;;;;;;;14.33;12.47;;;;;;;15.90;75.28;98132.59;5070742;28;20191;-55
2022/11/23 11:10:39;;;;;;;18.43;13.70;;;;;;;15.86;76.00;98133.56;5071867;28;20207;-55
2022/11/23 11:13:21;;;;;;;16.43;12.63;;;;;;;15.82;76.27;98129.38;5072060;28;20277;-56
2022/11/23 11:15:53;;;;;;;15.90;11.93;;;;;;;15.81;76.32;98125.06;5071737;28;20622;-55
2022/11/23 11:18:21;;;;;;;13.93;11.60;;;;;;;15.78;75.97;98136.38;5070992;28;20195;-55
2022/11/23 11:20:55;;;;;;;13.47;11.13;;;;;;;15.62;76.41;98129.03;5072224;28;20195;-56
2022/11/23 11:23:22;;;;;;;14.90;12.03;;;;;;;15.68;76.55;98126.28;5046268;28;20197;-55
2022/11/23 11:26:18;;;;;;;13.13;11.03;;;;;;;15.82;76.44;98119.00;5039265;28;20278;-56
2022/11/23 11:28:49;;;;;;;15.87;12.67;;;;;;;15.88;76.32;98113.63;5029816;28;20197;-57